Commodore Clipper — C6QQ3 — position and weather

sailwx.info

Track history (hours):
 
Tides and Currents Weather Stations Pressure Air Temp Water Temp Dewpoint Dewpoint Depression Visibility Wind Speed Wind Dir Waves Ship Positions

Commodore Clipper

Operator: Condor Marine Services

Last reported at 2020-Sep-18 06:50 UTC. Time now 2020-Sep-18 07:17 UTC.
Position N 50°42' W 001°59'.

Length 130 m; draft 4.9 m.

Type: Ship (hazmat cat C). MMSI: 308094000.

Date/timePositionNaut miles runAvg speedWind from/ knotsBaromVisibWave heightAir tempDewpointWater temp
2020-Sep-18 06:50N 50°42' W 001°59'0 0.0
2020-Sep-18 04:59N 50°42' W 001°59'0 0.0
2020-Sep-18 02:59N 50°42' W 001°59'0 0.0
2020-Sep-18 01:26N 50°42' W 001°59'0 0.0
2020-Sep-18 00:59N 50°42' W 001°59'0 0.0
2020-Sep-17 19:26N 50°42' W 001°59'0 0.0
2020-Sep-17 16:59N 50°42' W 001°59'0 0.0
2020-Sep-17 15:26N 50°42' W 001°59'0 0.0
2020-Sep-17 14:29N 50°42' W 001°59'0 0.0
2020-Sep-17 11:59N 50°42' W 001°59'0 0.0
2020-Sep-17 07:56N 50°42' W 001°59'0 0.0
2020-Sep-17 07:29N 50°42' W 001°59'0 0.0
2020-Sep-17 06:59N 50°42' W 001°59'0 0.0
2020-Sep-17 06:29N 50°42' W 001°59'0 0.0
2020-Sep-17 03:26N 50°42' W 001°59'0 0.0
2020-Sep-17 02:59N 50°42' W 001°59'0 0.0
2020-Sep-17 01:29N 50°42' W 001°59'0 0.0
2020-Sep-17 00:56N 50°42' W 001°59'0 0.0
2020-Sep-17 00:29N 50°42' W 001°59'0 0.0
2020-Sep-16 23:59N 50°42' W 001°59'0 0.0
2020-Sep-16 20:29N 50°42' W 001°59'0 0.0
2020-Sep-16 18:29N 50°42' W 001°59'0 0.0
2020-Sep-16 17:59N 50°42' W 001°59'0 0.0
2020-Sep-16 16:59N 50°42' W 001°59'0 0.0
2020-Sep-16 16:29N 50°42' W 001°59'0 0.0
2020-Sep-16 11:56N 50°42' W 001°59'0 0.0
2020-Sep-16 06:56N 50°42' W 001°59'0 0.0
2020-Sep-16 04:59N 50°42' W 001°59'0 0.0
2020-Sep-16 04:23N 50°42' W 001°59'0 0.0
2020-Sep-16 03:56N 50°42' W 001°59'0 0.0
2020-Sep-16 02:59N 50°42' W 001°59'0 0.0
2020-Sep-15 23:53N 50°42' W 001°59'0 0.0
2020-Sep-15 23:29N 50°42' W 001°59'0 0.0
2020-Sep-15 22:29N 50°42' W 001°59'0 0.0
2020-Sep-15 20:26N 50°42' W 001°59'0 0.0
2020-Sep-15 13:56N 50°42' W 001°59'0 0.0
2020-Sep-15 13:29N 50°42' W 001°59'0 0.0
2020-Sep-15 11:59N 50°42' W 001°59'0 0.0
2020-Sep-15 09:26N 50°42' W 001°59'0 0.0
2020-Sep-15 07:29N 50°42' W 001°59'0 0.0
2020-Sep-15 05:26N 50°42' W 001°59'0 0.0
2020-Sep-15 02:56N 50°42' W 001°59'0 0.0
2020-Sep-15 01:59N 50°42' W 001°59'0 0.0
2020-Sep-14 20:59N 50°42' W 001°59'0 0.0
2020-Sep-14 19:59N 50°42' W 001°59'0 0.0
2020-Sep-14 14:29N 50°42' W 001°59'0 0.0
2020-Sep-14 12:29N 50°42' W 001°59'0 0.0
2020-Sep-14 09:59N 50°42' W 001°59'0 0.0
2020-Sep-14 06:26N 50°42' W 001°59'0 0.0
2020-Sep-14 05:29N 50°42' W 001°59'0 0.0
2020-Sep-14 04:59N 50°42' W 001°59'0 0.0
2020-Sep-14 03:56N 50°42' W 001°59'0 0.0
2020-Sep-14 03:26N 50°42' W 001°59'0 0.0
2020-Sep-14 02:59N 50°42' W 001°59'0 0.0
2020-Sep-14 02:29N 50°42' W 001°59'0 0.0
2020-Sep-14 00:59N 50°42' W 001°59'0 0.0
2020-Sep-13 22:29N 50°42' W 001°59'0 0.0
2020-Sep-13 21:59N 50°42' W 001°59'0 0.0
2020-Sep-13 21:26N 50°42' W 001°59'0 0.0
2020-Sep-13 15:59N 50°42' W 001°59'0 0.0
2020-Sep-13 15:29N 50°42' W 001°59'0 0.0
2020-Sep-13 14:29N 50°42' W 001°59'0 0.0
2020-Sep-13 13:26N 50°42' W 001°59'34 7.7
2020-Sep-13 09:00N 50°46' W 001°06'2 4.6
2020-Sep-13 08:30N 50°49' W 001°06'0 0.1
2020-Sep-13 05:00N 50°49' W 001°06'5 9.4
2020-Sep-13 04:31N 50°44' W 001°04'714.0
2020-Sep-13 04:00N 50°37' W 001°07'2411.8
2020-Sep-13 02:00N 50°18' W 001°28'3011.9
2020-Sep-12 23:31N 49°53' W 001°54'4016.1
2020-Sep-12 21:01N 49°17' W 002°20'714.6
2020-Sep-12 20:31N 49°10' W 002°16'6 6.2
2020-Sep-12 19:30N 49°11' W 002°07'9 4.7
2020-Sep-12 17:31N 49°14' W 002°21'1510.3
2020-Sep-12 16:00N 49°27' W 002°32'0 0.0
2020-Sep-12 15:30N 49°27' W 002°32'5 5.4
2020-Sep-12 14:30N 49°28' W 002°23'7916.5
2020-Sep-12 09:42N 50°32' W 001°12'1714.0
2020-Sep-12 08:30N 50°48' W 001°07'1 0.4
2020-Sep-12 06:30N 50°49' W 001°06'0 0.1
2020-Sep-12 05:00N 50°49' W 001°06'4 8.8
2020-Sep-12 04:30N 50°44' W 001°04'3712.1
2020-Sep-12 01:27N 50°12' W 001°33'1812.2
2020-Sep-12 00:00N 49°59' W 001°51'2617.7
2020-Sep-11 22:31N 49°35' W 002°09'24 6.9
2020-Sep-11 19:00N 49°11' W 002°07'62 7.7
2020-Sep-11 10:56N 50°09' W 001°36'3417.5
2020-Sep-11 09:00N 50°37' W 001°07'815.1
2020-Sep-11 08:30N 50°45' W 001°05'4 7.9
2020-Sep-11 08:00N 50°49' W 001°06'0 0.0
2020-Sep-11 06:30N 50°49' W 001°06'0 0.0
2020-Sep-11 06:00N 50°49' W 001°06'11 5.5
2020-Sep-11 04:00N 50°38' W 001°07'510.3
2020-Sep-11 03:29N 50°33' W 001°11'5413.7
2020-Sep-10 23:30N 49°48' W 001°58'2818.7
2020-Sep-10 22:01N 49°23' W 002°17'917.2
2020-Sep-10 21:30N 49°14' W 002°21'714.8
2020-Sep-10 21:01N 49°10' W 002°12'4 2.4
2020-Sep-10 19:30N 49°11' W 002°07'20 4.0
2020-Sep-10 14:30N 49°27' W 002°24'8116.3
2020-Sep-10 09:30N 50°33' W 001°10'1610.5
2020-Sep-10 08:00N 50°49' W 001°06'1 0.2
2020-Sep-10 05:00N 50°49' W 001°07'2111.9
2020-Sep-10 03:12N 50°28' W 001°18'5413.0
2020-Sep-09 23:00N 49°43' W 002°04'32 9.2
2020-Sep-09 19:30N 49°11' W 002°07'0 0.0
2020-Sep-09 18:01N 49°11' W 002°07'714.3
2020-Sep-09 17:31N 49°10' W 002°18'1912.8
2020-Sep-09 16:00N 49°27' W 002°32'30 9.9
2020-Sep-09 13:00N 49°47' W 001°58'3115.4
2020-Sep-09 11:00N 50°13' W 001°32'2415.9
2020-Sep-09 09:31N 50°32' W 001°10'816.2
2020-Sep-09 09:01N 50°39' W 001°02'1010.0
2020-Sep-09 08:00N 50°49' W 001°06'0 0.0
2020-Sep-09 07:00N 50°49' W 001°06'0 0.0
2020-Sep-09 06:00N 50°49' W 001°06'25 8.3
2020-Sep-09 03:00N 50°25' W 001°19'1313.5
2020-Sep-09 02:00N 50°14' W 001°31'1414.2
2020-Sep-09 01:01N 50°02' W 001°42'714.7
2020-Sep-09 00:30N 49°56' W 001°48'1616.2
2020-Sep-08 23:30N 49°43' W 002°03'32 7.1
2020-Sep-08 19:00N 49°11' W 002°07'23 9.3
2020-Sep-08 16:31N 49°27' W 002°32'0 0.0
2020-Sep-08 15:31N 49°27' W 002°32'1212.0
2020-Sep-08 14:31N 49°32' W 002°15'1817.7
2020-Sep-08 13:30N 49°46' W 001°59'815.6
2020-Sep-08 13:00N 49°52' W 001°50'6015.0
2020-Sep-08 09:01N 50°44' W 001°03'5 5.2
2020-Sep-08 08:00N 50°49' W 001°06'  
Track history (hours):
 
Tides and Currents Weather Stations Pressure Air Temp Water Temp Dewpoint Dewpoint Depression Visibility Wind Speed Wind Dir Waves Ship Positions

Commodore Clipper

Operator: Condor Marine Services

Last reported at 2020-Sep-18 06:50 UTC. Time now 2020-Sep-18 07:17 UTC.
Position N 50°42' W 001°59'.

Length 130 m; draft 4.9 m.

Type: Ship (hazmat cat C). MMSI: 308094000.

Date/timePositionNaut miles runAvg speedWind from/ knotsBaromVisibWave heightAir tempDewpointWater temp
2020-Sep-18 06:50N 50°42' W 001°59'0 0.0
2020-Sep-18 04:59N 50°42' W 001°59'0 0.0
2020-Sep-18 02:59N 50°42' W 001°59'0 0.0
2020-Sep-18 01:26N 50°42' W 001°59'0 0.0
2020-Sep-18 00:59N 50°42' W 001°59'0 0.0
2020-Sep-17 19:26N 50°42' W 001°59'0 0.0
2020-Sep-17 16:59N 50°42' W 001°59'0 0.0
2020-Sep-17 15:26N 50°42' W 001°59'0 0.0
2020-Sep-17 14:29N 50°42' W 001°59'0 0.0
2020-Sep-17 11:59N 50°42' W 001°59'0 0.0
2020-Sep-17 07:56N 50°42' W 001°59'0 0.0
2020-Sep-17 07:29N 50°42' W 001°59'0 0.0
2020-Sep-17 06:59N 50°42' W 001°59'0 0.0
2020-Sep-17 06:29N 50°42' W 001°59'0 0.0
2020-Sep-17 03:26N 50°42' W 001°59'0 0.0
2020-Sep-17 02:59N 50°42' W 001°59'0 0.0
2020-Sep-17 01:29N 50°42' W 001°59'0 0.0
2020-Sep-17 00:56N 50°42' W 001°59'0 0.0
2020-Sep-17 00:29N 50°42' W 001°59'0 0.0
2020-Sep-16 23:59N 50°42' W 001°59'0 0.0
2020-Sep-16 20:29N 50°42' W 001°59'0 0.0
2020-Sep-16 18:29N 50°42' W 001°59'0 0.0
2020-Sep-16 17:59N 50°42' W 001°59'0 0.0
2020-Sep-16 16:59N 50°42' W 001°59'0 0.0
2020-Sep-16 16:29N 50°42' W 001°59'0 0.0
2020-Sep-16 11:56N 50°42' W 001°59'0 0.0
2020-Sep-16 06:56N 50°42' W 001°59'0 0.0
2020-Sep-16 04:59N 50°42' W 001°59'0 0.0
2020-Sep-16 04:23N 50°42' W 001°59'0 0.0
2020-Sep-16 03:56N 50°42' W 001°59'0 0.0
2020-Sep-16 02:59N 50°42' W 001°59'0 0.0
2020-Sep-15 23:53N 50°42' W 001°59'0 0.0
2020-Sep-15 23:29N 50°42' W 001°59'0 0.0
2020-Sep-15 22:29N 50°42' W 001°59'0 0.0
2020-Sep-15 20:26N 50°42' W 001°59'0 0.0
2020-Sep-15 13:56N 50°42' W 001°59'0 0.0
2020-Sep-15 13:29N 50°42' W 001°59'0 0.0
2020-Sep-15 11:59N 50°42' W 001°59'0 0.0
2020-Sep-15 09:26N 50°42' W 001°59'0 0.0
2020-Sep-15 07:29N 50°42' W 001°59'0 0.0
2020-Sep-15 05:26N 50°42' W 001°59'0 0.0
2020-Sep-15 02:56N 50°42' W 001°59'0 0.0
2020-Sep-15 01:59N 50°42' W 001°59'0 0.0
2020-Sep-14 20:59N 50°42' W 001°59'0 0.0
2020-Sep-14 19:59N 50°42' W 001°59'0 0.0
2020-Sep-14 14:29N 50°42' W 001°59'0 0.0
2020-Sep-14 12:29N 50°42' W 001°59'0 0.0
2020-Sep-14 09:59N 50°42' W 001°59'0 0.0
2020-Sep-14 06:26N 50°42' W 001°59'0 0.0
2020-Sep-14 05:29N 50°42' W 001°59'0 0.0
2020-Sep-14 04:59N 50°42' W 001°59'0 0.0
2020-Sep-14 03:56N 50°42' W 001°59'0 0.0
2020-Sep-14 03:26N 50°42' W 001°59'0 0.0
2020-Sep-14 02:59N 50°42' W 001°59'0 0.0
2020-Sep-14 02:29N 50°42' W 001°59'0 0.0
2020-Sep-14 00:59N 50°42' W 001°59'0 0.0
2020-Sep-13 22:29N 50°42' W 001°59'0 0.0
2020-Sep-13 21:59N 50°42' W 001°59'0 0.0
2020-Sep-13 21:26N 50°42' W 001°59'0 0.0
2020-Sep-13 15:59N 50°42' W 001°59'0 0.0
2020-Sep-13 15:29N 50°42' W 001°59'0 0.0
2020-Sep-13 14:29N 50°42' W 001°59'0 0.0
2020-Sep-13 13:26N 50°42' W 001°59'34 7.7
2020-Sep-13 09:00N 50°46' W 001°06'2 4.6
2020-Sep-13 08:30N 50°49' W 001°06'0 0.1
2020-Sep-13 05:00N 50°49' W 001°06'5 9.4
2020-Sep-13 04:31N 50°44' W 001°04'714.0
2020-Sep-13 04:00N 50°37' W 001°07'2411.8
2020-Sep-13 02:00N 50°18' W 001°28'3011.9
2020-Sep-12 23:31N 49°53' W 001°54'4016.1
2020-Sep-12 21:01N 49°17' W 002°20'714.6
2020-Sep-12 20:31N 49°10' W 002°16'6 6.2
2020-Sep-12 19:30N 49°11' W 002°07'9 4.7
2020-Sep-12 17:31N 49°14' W 002°21'1510.3
2020-Sep-12 16:00N 49°27' W 002°32'0 0.0
2020-Sep-12 15:30N 49°27' W 002°32'5 5.4
2020-Sep-12 14:30N 49°28' W 002°23'7916.5
2020-Sep-12 09:42N 50°32' W 001°12'1714.0
2020-Sep-12 08:30N 50°48' W 001°07'1 0.4
2020-Sep-12 06:30N 50°49' W 001°06'0 0.1
2020-Sep-12 05:00N 50°49' W 001°06'4 8.8
2020-Sep-12 04:30N 50°44' W 001°04'3712.1
2020-Sep-12 01:27N 50°12' W 001°33'1812.2
2020-Sep-12 00:00N 49°59' W 001°51'2617.7
2020-Sep-11 22:31N 49°35' W 002°09'24 6.9
2020-Sep-11 19:00N 49°11' W 002°07'62 7.7
2020-Sep-11 10:56N 50°09' W 001°36'3417.5
2020-Sep-11 09:00N 50°37' W 001°07'815.1
2020-Sep-11 08:30N 50°45' W 001°05'4 7.9
2020-Sep-11 08:00N 50°49' W 001°06'0 0.0
2020-Sep-11 06:30N 50°49' W 001°06'0 0.0
2020-Sep-11 06:00N 50°49' W 001°06'11 5.5
2020-Sep-11 04:00N 50°38' W 001°07'510.3
2020-Sep-11 03:29N 50°33' W 001°11'5413.7
2020-Sep-10 23:30N 49°48' W 001°58'2818.7
2020-Sep-10 22:01N 49°23' W 002°17'917.2
2020-Sep-10 21:30N 49°14' W 002°21'714.8
2020-Sep-10 21:01N 49°10' W 002°12'4 2.4
2020-Sep-10 19:30N 49°11' W 002°07'20 4.0
2020-Sep-10 14:30N 49°27' W 002°24'8116.3
2020-Sep-10 09:30N 50°33' W 001°10'1610.5
2020-Sep-10 08:00N 50°49' W 001°06'1 0.2
2020-Sep-10 05:00N 50°49' W 001°07'2111.9
2020-Sep-10 03:12N 50°28' W 001°18'5413.0
2020-Sep-09 23:00N 49°43' W 002°04'32 9.2
2020-Sep-09 19:30N 49°11' W 002°07'0 0.0
2020-Sep-09 18:01N 49°11' W 002°07'714.3
2020-Sep-09 17:31N 49°10' W 002°18'1912.8
2020-Sep-09 16:00N 49°27' W 002°32'30 9.9
2020-Sep-09 13:00N 49°47' W 001°58'3115.4
2020-Sep-09 11:00N 50°13' W 001°32'2415.9
2020-Sep-09 09:31N 50°32' W 001°10'816.2
2020-Sep-09 09:01N 50°39' W 001°02'1010.0
2020-Sep-09 08:00N 50°49' W 001°06'0 0.0
2020-Sep-09 07:00N 50°49' W 001°06'0 0.0
2020-Sep-09 06:00N 50°49' W 001°06'25 8.3
2020-Sep-09 03:00N 50°25' W 001°19'1313.5
2020-Sep-09 02:00N 50°14' W 001°31'1414.2
2020-Sep-09 01:01N 50°02' W 001°42'714.7
2020-Sep-09 00:30N 49°56' W 001°48'1616.2
2020-Sep-08 23:30N 49°43' W 002°03'32 7.1
2020-Sep-08 19:00N 49°11' W 002°07'23 9.3
2020-Sep-08 16:31N 49°27' W 002°32'0 0.0
2020-Sep-08 15:31N 49°27' W 002°32'1212.0
2020-Sep-08 14:31N 49°32' W 002°15'1817.7
2020-Sep-08 13:30N 49°46' W 001°59'815.6
2020-Sep-08 13:00N 49°52' W 001°50'6015.0
2020-Sep-08 09:01N 50°44' W 001°03'5 5.2
2020-Sep-08 08:00N 50°49' W 001°06'  

Dump ship's entire track history